Johnny James — WYT8450 — position and weather

sailwx.info

Track history (hours):
 
Tides and Currents Weather Stations Pressure Air Temp Water Temp Dewpoint Dewpoint Depression Visibility Wind Speed Wind Dir Waves Ship Positions

Johnny James

Owner: CALLAIS & SONS INC, CUT OFF, LA. More information available from US FCC via Universal Licensing System and Coast Guard Vessel Documentation Center.

Last reported at 2015-Jan-29 09:33 UTC. Time now 2015-Jan-29 10:21 UTC.
Position N 29°45' W 095°11'.

Length 20 m.

Type: Towing. MMSI: 367005220.

Date/timePositionNaut miles runAvg speedWind from/ knotsBaromVisibWave heightAir tempDewpointWater temp
2015-Jan-29 09:33N 29°45' W 095°11'3 3.2
2015-Jan-29 08:33N 29°43' W 095°14'0 0.1
2015-Jan-29 07:33N 29°43' W 095°14'0 0.1
2015-Jan-29 06:33N 29°43' W 095°14'0 0.0
2015-Jan-28 17:32N 29°43' W 095°14'0 0.0
2015-Jan-28 16:33N 29°43' W 095°14'0 0.0
2015-Jan-28 15:33N 29°43' W 095°14'0 0.0
2015-Jan-28 14:34N 29°43' W 095°14'0 0.0
2015-Jan-28 13:34N 29°43' W 095°14'0 0.0
2015-Jan-28 12:34N 29°43' W 095°14'0 0.0
2015-Jan-28 11:34N 29°43' W 095°14'0 0.0
2015-Jan-28 10:34N 29°43' W 095°14'0 0.0
2015-Jan-28 09:34N 29°43' W 095°14'0 0.0
2015-Jan-28 08:33N 29°43' W 095°14'0 0.0
2015-Jan-28 07:33N 29°43' W 095°14'0 0.0
2015-Jan-28 06:33N 29°43' W 095°14'0 0.0
2015-Jan-28 05:33N 29°43' W 095°14'0 0.0
2015-Jan-28 04:34N 29°43' W 095°14'0 0.0
2015-Jan-28 03:34N 29°43' W 095°14'0 0.0
2015-Jan-28 02:33N 29°43' W 095°14'0 0.0
2015-Jan-28 01:33N 29°43' W 095°14'4 4.2
2015-Jan-28 00:33N 29°45' W 095°10'4 3.8
2015-Jan-27 23:33N 29°46' W 095°06'0 0.3
2015-Jan-27 22:34N 29°46' W 095°06'0 0.0
2015-Jan-27 21:33N 29°46' W 095°06'0 0.0
2015-Jan-27 20:33N 29°46' W 095°06'0 0.0
2015-Jan-27 19:33N 29°46' W 095°06'0 0.0
2015-Jan-27 18:33N 29°46' W 095°06'0 0.0
2015-Jan-27 17:33N 29°46' W 095°06'0 0.0
2015-Jan-27 16:33N 29°46' W 095°06'0 0.0
2015-Jan-27 15:32N 29°46' W 095°06'0 0.0
2015-Jan-27 14:33N 29°46' W 095°06'0 0.0
2015-Jan-27 13:25N 29°46' W 095°06'1 1.0
2015-Jan-27 12:10N 29°46' W 095°07'1 2.4
2015-Jan-27 11:33N 29°46' W 095°05'0 0.2
2015-Jan-27 10:33N 29°46' W 095°06'0 0.0
2015-Jan-27 09:32N 29°46' W 095°06'0 0.0
2015-Jan-27 08:33N 29°46' W 095°06'0 0.0
2015-Jan-27 07:32N 29°46' W 095°06'0 0.3
2015-Jan-27 06:29N 29°45' W 095°06'1 1.2
2015-Jan-27 05:33N 29°46' W 095°05'0 0.0
2015-Jan-27 04:33N 29°46' W 095°05'0 0.0
2015-Jan-27 03:33N 29°46' W 095°05'0 0.0
2015-Jan-27 02:33N 29°46' W 095°05'0 0.0
2015-Jan-27 01:33N 29°46' W 095°05'0 0.0
2015-Jan-27 00:33N 29°46' W 095°05'0 0.0
2015-Jan-26 23:33N 29°46' W 095°05'0 0.1
2015-Jan-26 22:33N 29°46' W 095°05'0 0.0
2015-Jan-26 21:33N 29°46' W 095°05'2 1.8
2015-Jan-26 20:33N 29°46' W 095°07'0 0.4
2015-Jan-26 19:33N 29°46' W 095°07'0 0.0
2015-Jan-26 18:33N 29°46' W 095°07'0 0.0
2015-Jan-26 17:33N 29°46' W 095°07'0 0.0
2015-Jan-26 16:33N 29°46' W 095°07'0 0.0
2015-Jan-26 15:33N 29°46' W 095°07'0 0.0
2015-Jan-26 14:33N 29°46' W 095°07'0 0.0
2015-Jan-26 01:05N 29°46' W 095°07'0 0.0
2015-Jan-25 17:31N 29°46' W 095°07'1 0.1
2015-Jan-25 06:33N 29°46' W 095°06'1 0.8
2015-Jan-25 05:33N 29°46' W 095°05'4 4.4
2015-Jan-25 04:33N 29°43' W 095°01'5 5.1
2015-Jan-25 03:32N 29°39' W 094°58'6 5.9
2015-Jan-25 02:33N 29°34' W 094°55'7 6.9
2015-Jan-25 01:33N 29°28' W 094°51'  
2015-Jan-20 00:33N 29°31' W 094°53'6 5.7
2015-Jan-19 23:34N 29°35' W 094°56'6 6.0
2015-Jan-19 22:34N 29°41' W 094°59'5 5.4
2015-Jan-19 21:34N 29°44' W 095°04'3 2.7
2015-Jan-19 20:34N 29°47' W 095°04'0 0.4
2015-Jan-19 19:34N 29°47' W 095°04'0 0.0
2015-Jan-19 18:34N 29°47' W 095°04'2 1.9
2015-Jan-19 17:33N 29°46' W 095°06'0 0.3
2015-Jan-19 16:34N 29°46' W 095°05'1 1.0
2015-Jan-19 15:34N 29°46' W 095°06'1 1.3
2015-Jan-19 14:34N 29°45' W 095°06'2 1.7
2015-Jan-19 13:34N 29°46' W 095°05'1 1.2
2015-Jan-19 12:34N 29°47' W 095°04'0 0.2
2015-Jan-19 11:34N 29°47' W 095°04'0 0.0
2015-Jan-19 10:33N 29°47' W 095°04'0 0.4
2015-Jan-19 09:34N 29°47' W 095°04'  
Track history (hours):
 
Tides and Currents Weather Stations Pressure Air Temp Water Temp Dewpoint Dewpoint Depression Visibility Wind Speed Wind Dir Waves Ship Positions

Johnny James

Owner: CALLAIS & SONS INC, CUT OFF, LA. More information available from US FCC via Universal Licensing System and Coast Guard Vessel Documentation Center.

Last reported at 2015-Jan-29 09:33 UTC. Time now 2015-Jan-29 10:21 UTC.
Position N 29°45' W 095°11'.

Length 20 m.

Type: Towing. MMSI: 367005220.

Date/timePositionNaut miles runAvg speedWind from/ knotsBaromVisibWave heightAir tempDewpointWater temp
2015-Jan-29 09:33N 29°45' W 095°11'3 3.2
2015-Jan-29 08:33N 29°43' W 095°14'0 0.1
2015-Jan-29 07:33N 29°43' W 095°14'0 0.1
2015-Jan-29 06:33N 29°43' W 095°14'0 0.0
2015-Jan-28 17:32N 29°43' W 095°14'0 0.0
2015-Jan-28 16:33N 29°43' W 095°14'0 0.0
2015-Jan-28 15:33N 29°43' W 095°14'0 0.0
2015-Jan-28 14:34N 29°43' W 095°14'0 0.0
2015-Jan-28 13:34N 29°43' W 095°14'0 0.0
2015-Jan-28 12:34N 29°43' W 095°14'0 0.0
2015-Jan-28 11:34N 29°43' W 095°14'0 0.0
2015-Jan-28 10:34N 29°43' W 095°14'0 0.0
2015-Jan-28 09:34N 29°43' W 095°14'0 0.0
2015-Jan-28 08:33N 29°43' W 095°14'0 0.0
2015-Jan-28 07:33N 29°43' W 095°14'0 0.0
2015-Jan-28 06:33N 29°43' W 095°14'0 0.0
2015-Jan-28 05:33N 29°43' W 095°14'0 0.0
2015-Jan-28 04:34N 29°43' W 095°14'0 0.0
2015-Jan-28 03:34N 29°43' W 095°14'0 0.0
2015-Jan-28 02:33N 29°43' W 095°14'0 0.0
2015-Jan-28 01:33N 29°43' W 095°14'4 4.2
2015-Jan-28 00:33N 29°45' W 095°10'4 3.8
2015-Jan-27 23:33N 29°46' W 095°06'0 0.3
2015-Jan-27 22:34N 29°46' W 095°06'0 0.0
2015-Jan-27 21:33N 29°46' W 095°06'0 0.0
2015-Jan-27 20:33N 29°46' W 095°06'0 0.0
2015-Jan-27 19:33N 29°46' W 095°06'0 0.0
2015-Jan-27 18:33N 29°46' W 095°06'0 0.0
2015-Jan-27 17:33N 29°46' W 095°06'0 0.0
2015-Jan-27 16:33N 29°46' W 095°06'0 0.0
2015-Jan-27 15:32N 29°46' W 095°06'0 0.0
2015-Jan-27 14:33N 29°46' W 095°06'0 0.0
2015-Jan-27 13:25N 29°46' W 095°06'1 1.0
2015-Jan-27 12:10N 29°46' W 095°07'1 2.4
2015-Jan-27 11:33N 29°46' W 095°05'0 0.2
2015-Jan-27 10:33N 29°46' W 095°06'0 0.0
2015-Jan-27 09:32N 29°46' W 095°06'0 0.0
2015-Jan-27 08:33N 29°46' W 095°06'0 0.0
2015-Jan-27 07:32N 29°46' W 095°06'0 0.3
2015-Jan-27 06:29N 29°45' W 095°06'1 1.2
2015-Jan-27 05:33N 29°46' W 095°05'0 0.0
2015-Jan-27 04:33N 29°46' W 095°05'0 0.0
2015-Jan-27 03:33N 29°46' W 095°05'0 0.0
2015-Jan-27 02:33N 29°46' W 095°05'0 0.0
2015-Jan-27 01:33N 29°46' W 095°05'0 0.0
2015-Jan-27 00:33N 29°46' W 095°05'0 0.0
2015-Jan-26 23:33N 29°46' W 095°05'0 0.1
2015-Jan-26 22:33N 29°46' W 095°05'0 0.0
2015-Jan-26 21:33N 29°46' W 095°05'2 1.8
2015-Jan-26 20:33N 29°46' W 095°07'0 0.4
2015-Jan-26 19:33N 29°46' W 095°07'0 0.0
2015-Jan-26 18:33N 29°46' W 095°07'0 0.0
2015-Jan-26 17:33N 29°46' W 095°07'0 0.0
2015-Jan-26 16:33N 29°46' W 095°07'0 0.0
2015-Jan-26 15:33N 29°46' W 095°07'0 0.0
2015-Jan-26 14:33N 29°46' W 095°07'0 0.0
2015-Jan-26 01:05N 29°46' W 095°07'0 0.0
2015-Jan-25 17:31N 29°46' W 095°07'1 0.1
2015-Jan-25 06:33N 29°46' W 095°06'1 0.8
2015-Jan-25 05:33N 29°46' W 095°05'4 4.4
2015-Jan-25 04:33N 29°43' W 095°01'5 5.1
2015-Jan-25 03:32N 29°39' W 094°58'6 5.9
2015-Jan-25 02:33N 29°34' W 094°55'7 6.9
2015-Jan-25 01:33N 29°28' W 094°51'  
2015-Jan-20 00:33N 29°31' W 094°53'6 5.7
2015-Jan-19 23:34N 29°35' W 094°56'6 6.0
2015-Jan-19 22:34N 29°41' W 094°59'5 5.4
2015-Jan-19 21:34N 29°44' W 095°04'3 2.7
2015-Jan-19 20:34N 29°47' W 095°04'0 0.4
2015-Jan-19 19:34N 29°47' W 095°04'0 0.0
2015-Jan-19 18:34N 29°47' W 095°04'2 1.9
2015-Jan-19 17:33N 29°46' W 095°06'0 0.3
2015-Jan-19 16:34N 29°46' W 095°05'1 1.0
2015-Jan-19 15:34N 29°46' W 095°06'1 1.3
2015-Jan-19 14:34N 29°45' W 095°06'2 1.7
2015-Jan-19 13:34N 29°46' W 095°05'1 1.2
2015-Jan-19 12:34N 29°47' W 095°04'0 0.2
2015-Jan-19 11:34N 29°47' W 095°04'0 0.0
2015-Jan-19 10:33N 29°47' W 095°04'0 0.4
2015-Jan-19 09:34N 29°47' W 095°04'  

Dump ship's entire track history